Time,TemperatureF,DewpointF,PressureIn,WindDirection,WindDirectionDegrees,WindSpeedMPH,WindSpeedGustMPH,Humidity,HourlyPrecipIn,Conditions,Clouds,dailyrainin,SoftwareType,DateUTC
2013-05-08 00:00:00,52.9,51.0,29.98,SW,236,0.0,0.0,94,0.00,,,0.00,weatherlink.com 1.10,2013-05-08 05:00:00,
2013-05-08 00:15:00,52.6,51.0,29.98,SW,236,0.0,0.0,95,0.00,,,0.00,weatherlink.com 1.10,2013-05-08 05:15:00,
2013-05-08 00:30:00,52.2,51.0,29.98,SW,236,0.0,0.0,95,0.00,,,0.00,weatherlink.com 1.10,2013-05-08 05:30:00,
2013-05-08 00:45:00,52.0,51.0,29.98,SW,236,0.0,0.0,95,0.00,,,0.00,weatherlink.com 1.10,2013-05-08 05:45:00,
2013-05-08 01:00:00,51.8,51.0,29.97,SW,236,0.0,0.0,96,0.00,,,0.00,weatherlink.com 1.10,2013-05-08 06:00:00,
2013-05-08 01:15:00,51.6,50.0,29.97,SW,236,0.0,0.0,95,0.00,,,0.00,weatherlink.com 1.10,2013-05-08 06:15:00,
2013-05-08 01:30:00,51.3,50.0,29.96,SW,236,0.0,0.0,95,0.00,,,0.00,weatherlink.com 1.10,2013-05-08 06:30:00,
2013-05-08 01:45:00,51.1,50.0,29.96,SW,236,0.0,0.0,96,0.00,,,0.00,weatherlink.com 1.10,2013-05-08 06:45:00,
2013-05-08 02:00:00,50.7,49.0,29.96,SW,236,0.0,0.0,95,0.00,,,0.00,weatherlink.com 1.10,2013-05-08 07:00:00,
2013-05-08 02:15:00,50.6,50.0,29.96,SW,236,0.0,0.0,96,0.00,,,0.00,weatherlink.com 1.10,2013-05-08 07:15:00,
2013-05-08 02:30:00,50.4,49.0,29.96,SW,236,0.0,0.0,96,0.00,,,0.00,weatherlink.com 1.10,2013-05-08 07:30:00,
2013-05-08 02:45:00,50.4,49.0,29.96,SW,236,0.0,1.0,96,0.00,,,0.00,weatherlink.com 1.10,2013-05-08 07:45:00,
2013-05-08 03:00:00,50.7,50.0,29.97,SW,236,0.0,0.0,97,0.00,,,0.00,weatherlink.com 1.10,2013-05-08 08:00:00,
2013-05-08 03:15:00,50.4,49.0,29.97,SW,236,0.0,0.0,96,0.00,,,0.00,weatherlink.com 1.10,2013-05-08 08:15:00,
2013-05-08 03:30:00,50.1,49.0,29.97,SW,236,0.0,0.0,96,0.00,,,0.00,weatherlink.com 1.10,2013-05-08 08:30:00,
2013-05-08 03:45:00,50.1,49.0,29.97,SW,236,0.0,0.0,97,0.00,,,0.00,weatherlink.com 1.10,2013-05-08 08:45:00,
2013-05-08 04:00:00,49.8,49.0,29.98,SW,236,0.0,0.0,96,0.00,,,0.00,weatherlink.com 1.10,2013-05-08 09:00:00,
2013-05-08 04:15:00,49.6,49.0,29.98,SW,236,0.0,0.0,96,0.00,,,0.00,weatherlink.com 1.10,2013-05-08 09:15:00,
2013-05-08 04:30:00,49.4,48.0,29.98,SW,236,0.0,0.0,96,0.00,,,0.00,weatherlink.com 1.10,2013-05-08 09:30:00,
2013-05-08 04:46:00,49.2,48.0,29.98,SW,236,0.0,0.0,96,0.00,,,0.00,weatherlink.com 1.10,2013-05-08 09:46:00,
2013-05-08 05:00:00,49.2,48.0,29.98,SW,236,0.0,0.0,97,0.00,,,0.00,weatherlink.com 1.10,2013-05-08 10:00:00,
2013-05-08 05:15:00,49.1,48.0,29.99,SW,236,0.0,0.0,97,0.00,,,0.00,weatherlink.com 1.10,2013-05-08 10:15:00,
2013-05-08 05:30:00,49.1,48.0,29.99,SW,236,0.0,0.0,97,0.00,,,0.00,weatherlink.com 1.10,2013-05-08 10:30:00,
2013-05-08 05:45:00,49.0,48.0,30.00,SW,236,0.0,0.0,97,0.00,,,0.00,weatherlink.com 1.10,2013-05-08 10:45:00,
2013-05-08 06:00:00,48.9,48.0,30.00,SW,236,0.0,0.0,97,0.00,,,0.00,weatherlink.com 1.10,2013-05-08 11:00:00,
2013-05-08 06:15:00,48.8,48.0,30.01,SW,236,0.0,0.0,97,0.00,,,0.00,weatherlink.com 1.10,2013-05-08 11:15:00,
2013-05-08 06:30:00,48.9,48.0,30.01,SW,236,0.0,0.0,97,0.00,,,0.00,weatherlink.com 1.10,2013-05-08 11:30:00,
2013-05-08 06:45:00,49.4,49.0,30.02,SW,236,0.0,0.0,97,0.00,,,0.00,weatherlink.com 1.10,2013-05-08 11:45:00,
2013-05-08 07:00:00,51.2,51.0,30.02,SW,236,0.0,0.0,98,0.00,,,0.00,weatherlink.com 1.10,2013-05-08 12:00:00,
2013-05-08 07:16:00,53.3,53.0,30.02,SW,236,0.0,0.0,98,0.00,,,0.00,weatherlink.com 1.10,2013-05-08 12:16:00,
2013-05-08 07:31:00,57.0,57.0,30.03,SW,236,0.0,0.0,98,0.00,,,0.00,weatherlink.com 1.10,2013-05-08 12:31:00,
2013-05-08 07:46:00,60.3,60.0,30.03,SW,236,2.0,2.0,98,0.00,,,0.00,weatherlink.com 1.10,2013-05-08 12:46:00,
2013-05-08 08:01:00,64.0,62.0,30.04,SW,236,0.0,0.0,92,0.00,,,0.00,weatherlink.com 1.10,2013-05-08 13:01:00,
2013-05-08 08:16:00,66.8,62.0,30.04,WSW,257,0.0,2.0,83,0.00,,,0.00,weatherlink.com 1.10,2013-05-08 13:16:00,
2013-05-08 08:31:00,69.1,62.0,30.04,WNW,290,0.0,3.0,77,0.00,,,0.00,weatherlink.com 1.10,2013-05-08 13:31:00,
2013-05-08 08:46:00,69.9,62.0,30.04,West,259,1.0,4.0,75,0.00,,,0.00,weatherlink.com 1.10,2013-05-08 13:46:00,
2013-05-08 09:01:00,70.9,61.0,30.04,WNW,294,0.0,6.0,72,0.00,,,0.00,weatherlink.com 1.10,2013-05-08 14:01:00,
2013-05-08 09:16:00,72.0,63.0,30.04,SW,233,0.0,3.0,72,0.00,,,0.00,weatherlink.com 1.10,2013-05-08 14:16:00,
2013-05-08 09:31:00,73.1,61.0,30.04,WNW,303,2.0,4.0,67,0.00,,,0.00,weatherlink.com 1.10,2013-05-08 14:31:00,
2013-05-08 09:46:00,74.1,62.0,30.04,West,259,1.0,4.0,67,0.00,,,0.00,weatherlink.com 1.10,2013-05-08 14:46:00,
2013-05-08 10:01:00,75.0,59.0,30.04,NW,309,4.0,5.0,57,0.00,,,0.00,weatherlink.com 1.10,2013-05-08 15:01:00,
2013-05-08 10:16:00,75.5,59.0,30.04,West,259,2.0,6.0,56,0.00,,,0.00,weatherlink.com 1.10,2013-05-08 15:16:00,
2013-05-08 10:31:00,76.5,60.0,30.04,WNW,290,0.0,4.0,57,0.00,,,0.00,weatherlink.com 1.10,2013-05-08 15:31:00,
2013-05-08 10:46:00,76.7,59.0,30.04,WSW,252,2.0,6.0,55,0.00,,,0.00,weatherlink.com 1.10,2013-05-08 15:46:00,
2013-05-08 11:01:00,76.8,58.0,30.04,WSW,249,2.0,5.0,53,0.00,,,0.00,weatherlink.com 1.10,2013-05-08 16:01:00,
2013-05-08 11:16:00,76.9,58.0,30.04,WSW,237,1.0,6.0,53,0.00,,,0.00,weatherlink.com 1.10,2013-05-08 16:16:00,
2013-05-08 11:31:00,77.2,56.0,30.04,WNW,286,1.0,5.0,49,0.00,,,0.00,weatherlink.com 1.10,2013-05-08 16:31:00,
2013-05-08 11:47:00,78.0,57.0,30.04,West,267,1.0,3.0,49,0.00,,,0.00,weatherlink.com 1.10,2013-05-08 16:47:00,
2013-05-08 12:02:00,78.0,59.0,30.03,NNE,27,2.0,5.0,53,0.00,,,0.00,weatherlink.com 1.10,2013-05-08 17:02:00,
2013-05-08 12:17:00,78.7,57.0,30.03,SW,226,0.0,8.0,48,0.00,,,0.00,weatherlink.com 1.10,2013-05-08 17:17:00,
2013-05-08 12:32:00,79.7,60.0,30.03,SW,228,3.0,8.0,51,0.00,,,0.00,weatherlink.com 1.10,2013-05-08 17:32:00,
2013-05-08 12:47:00,78.9,57.0,30.03,South,180,1.0,6.0,48,0.00,,,0.00,weatherlink.com 1.10,2013-05-08 17:47:00,
2013-05-08 13:02:00,79.9,60.0,30.02,WSW,239,1.0,6.0,50,0.00,,,0.00,weatherlink.com 1.10,2013-05-08 18:02:00,
2013-05-08 13:17:00,79.6,59.0,30.02,WSW,238,3.0,6.0,50,0.00,,,0.00,weatherlink.com 1.10,2013-05-08 18:17:00,
2013-05-08 13:32:00,81.2,57.0,30.01,WSW,258,0.0,5.0,44,0.00,,,0.00,weatherlink.com 1.10,2013-05-08 18:32:00,
2013-05-08 13:47:00,81.6,57.0,30.01,SW,216,1.0,5.0,43,0.00,,,0.00,weatherlink.com 1.10,2013-05-08 18:47:00,
2013-05-08 14:02:00,81.8,54.0,30.01,WSW,243,2.0,5.0,39,0.00,,,0.00,weatherlink.com 1.10,2013-05-08 19:02:00,
2013-05-08 14:17:00,82.5,56.0,30.01,West,262,1.0,5.0,41,0.00,,,0.00,weatherlink.com 1.10,2013-05-08 19:17:00,
2013-05-08 14:32:00,82.8,56.0,30.01,WSW,258,4.0,7.0,40,0.00,,,0.00,weatherlink.com 1.10,2013-05-08 19:32:00,
2013-05-08 14:47:00,82.0,57.0,30.00,South,176,2.0,3.0,42,0.00,,,0.00,weatherlink.com 1.10,2013-05-08 19:47:00,
2013-05-08 15:02:00,82.2,57.0,30.00,SSW,199,0.0,5.0,42,0.00,,,0.00,weatherlink.com 1.10,2013-05-08 20:02:00,
2013-05-08 15:17:00,81.6,58.0,30.00,SSW,201,1.0,9.0,45,0.00,,,0.00,weatherlink.com 1.10,2013-05-08 20:17:00,
2013-05-08 15:32:00,81.7,56.0,29.99,SW,217,3.0,6.0,42,0.00,,,0.00,weatherlink.com 1.10,2013-05-08 20:32:00,
2013-05-08 15:47:00,81.2,59.0,29.99,NW,324,1.0,8.0,47,0.00,,,0.00,weatherlink.com 1.10,2013-05-08 20:47:00,
2013-05-08 16:02:00,81.4,55.0,29.99,SW,222,2.0,8.0,41,0.00,,,0.00,weatherlink.com 1.10,2013-05-08 21:02:00,
2013-05-08 16:17:00,81.8,58.0,29.99,SW,235,0.0,5.0,45,0.00,,,0.00,weatherlink.com 1.10,2013-05-08 21:17:00,
2013-05-08 16:32:00,81.6,57.0,29.98,South,171,2.0,4.0,43,0.00,,,0.00,weatherlink.com 1.10,2013-05-08 21:32:00,
2013-05-08 16:47:00,80.5,57.0,29.98,SSW,197,0.0,3.0,45,0.00,,,0.00,weatherlink.com 1.10,2013-05-08 21:47:00,
2013-05-08 17:02:00,80.7,57.0,29.98,SW,230,5.0,6.0,44,0.00,,,0.00,weatherlink.com 1.10,2013-05-08 22:02:00,
2013-05-08 17:17:00,80.4,56.0,29.98,SW,218,1.0,10.0,43,0.00,,,0.00,weatherlink.com 1.10,2013-05-08 22:17:00,
2013-05-08 17:32:00,78.8,57.0,29.98,SW,220,2.0,9.0,47,0.00,,,0.00,weatherlink.com 1.10,2013-05-08 22:32:00,
2013-05-08 17:47:00,77.5,56.0,29.98,WSW,238,1.0,5.0,48,0.00,,,0.00,weatherlink.com 1.10,2013-05-08 22:47:00,
2013-05-08 18:02:00,76.7,57.0,29.98,SW,223,2.0,6.0,51,0.00,,,0.00,weatherlink.com 1.10,2013-05-08 23:02:00,
2013-05-08 18:17:00,76.2,58.0,29.98,WSW,238,4.0,6.0,53,0.00,,,0.00,weatherlink.com 1.10,2013-05-08 23:17:00,
2013-05-08 18:32:00,75.9,58.0,29.97,SW,215,2.0,3.0,55,0.00,,,0.00,weatherlink.com 1.10,2013-05-08 23:32:00,
2013-05-08 18:47:00,75.8,59.0,29.97,SW,223,1.0,3.0,56,0.00,,,0.00,weatherlink.com 1.10,2013-05-08 23:47:00,
2013-05-08 19:02:00,75.5,60.0,29.97,SW,222,0.0,2.0,59,0.00,,,0.00,weatherlink.com 1.10,2013-05-09 00:02:00,
2013-05-08 19:17:00,74.4,60.0,29.98,SW,222,0.0,1.0,61,0.00,,,0.00,weatherlink.com 1.10,2013-05-09 00:17:00,
2013-05-08 19:32:00,72.8,61.0,29.98,SW,222,0.0,0.0,67,0.00,,,0.00,weatherlink.com 1.10,2013-05-09 00:32:00,
2013-05-08 19:47:00,70.1,60.0,29.98,SW,222,0.0,0.0,71,0.00,,,0.00,weatherlink.com 1.10,2013-05-09 00:47:00,
2013-05-08 20:02:00,67.7,60.0,29.98,SW,222,0.0,0.0,76,0.00,,,0.00,weatherlink.com 1.10,2013-05-09 01:02:00,
2013-05-08 20:17:00,66.1,60.0,29.98,SW,222,0.0,0.0,81,0.00,,,0.00,weatherlink.com 1.10,2013-05-09 01:17:00,
2013-05-08 20:32:00,64.9,60.0,29.99,SW,222,0.0,0.0,83,0.00,,,0.00,weatherlink.com 1.10,2013-05-09 01:32:00,
2013-05-08 20:47:00,63.8,59.0,29.99,SW,222,0.0,0.0,84,0.00,,,0.00,weatherlink.com 1.10,2013-05-09 01:47:00,
2013-05-08 21:02:00,62.8,59.0,29.99,SW,222,0.0,0.0,87,0.00,,,0.00,weatherlink.com 1.10,2013-05-09 02:02:00,
2013-05-08 21:17:00,62.3,59.0,30.00,SW,222,0.0,0.0,89,0.00,,,0.00,weatherlink.com 1.10,2013-05-09 02:17:00,
2013-05-08 21:32:00,62.0,59.0,30.01,SW,222,0.0,0.0,89,0.00,,,0.00,weatherlink.com 1.10,2013-05-09 02:32:00,
2013-05-08 21:47:00,61.9,59.0,30.01,SW,222,0.0,0.0,90,0.00,,,0.00,weatherlink.com 1.10,2013-05-09 02:47:00,
2013-05-08 22:02:00,61.7,59.0,30.01,SW,222,0.0,0.0,91,0.00,,,0.00,weatherlink.com 1.10,2013-05-09 03:02:00,
2013-05-08 22:17:00,61.7,59.0,30.01,SW,222,0.0,0.0,91,0.00,,,0.00,weatherlink.com 1.10,2013-05-09 03:17:00,
2013-05-08 22:32:00,61.6,59.0,30.01,SW,222,0.0,0.0,92,0.00,,,0.00,weatherlink.com 1.10,2013-05-09 03:32:00,
2013-05-08 22:47:00,61.6,59.0,30.01,SW,222,0.0,0.0,92,0.00,,,0.00,weatherlink.com 1.10,2013-05-09 03:47:00,
2013-05-08 23:02:00,61.5,59.0,30.00,SW,222,0.0,0.0,92,0.00,,,0.00,weatherlink.com 1.10,2013-05-09 04:02:00,
2013-05-08 23:17:00,61.4,59.0,30.00,SW,222,0.0,0.0,92,0.00,,,0.00,weatherlink.com 1.10,2013-05-09 04:17:00,
2013-05-08 23:32:00,61.4,59.0,30.00,SW,222,0.0,0.0,93,0.00,,,0.00,weatherlink.com 1.10,2013-05-09 04:32:00,
2013-05-08 23:47:00,61.4,59.0,30.00,SW,222,0.0,0.0,93,0.00,,,0.00,weatherlink.com 1.10,2013-05-09 04:47:00,